Terminal Aerodrome Forecast
Issued by NWS Portland, ME

Home | Current Version | Previous Version | Text Only | Print | Product List | Glossary On
Versions: 1 2 3 4 5 6 7 8 9 10 11 12 13 14 15 16 17 18 19 20 21 22
077
FTUS41 KGYX 261133
TAFPWM
TAF
KPWM 261133Z 2612/2712 00000KT P6SM FEW001 BKN250
     FM261300 16006KT P6SM SKC
     FM270000 18004KT 4SM BR OVC250
     FM270300 00000KT 3/4SM BR OVC001=

USA.gov is the U.S. government's official web portal to all federal, state and local government web resources and services.